Time;durP1;ratioP1;P1;durP2;ratioP2;P2;SDS_P1;SDS_P2;PMS_P1;PMS_P2;Temp;Humidity;BMP_temperature;BMP_pressure;BME280_temperature;BME280_humidity;BME280_pressure;Samples;Min_cycle;Max_cycle;Signal;HPM_P1;HPM_P2
2022/01/30 05:01:24;;;;;;;12.13;3.55;;;6.40;99.90;;;;;;5565815;23;20675;-68
2022/01/30 05:04:01;;;;;;;6.97;2.00;;;6.50;99.90;;;;;;4957230;28;20265;-68
2022/01/30 05:06:41;;;;;;;8.02;3.00;;;6.50;99.90;;;;;;4957263;28;20292;-68
2022/01/30 05:09:09;;;;;;;9.45;2.88;;;6.50;99.90;;;;;;4952941;28;20205;-68
2022/01/30 05:11:35;;;;;;;8.20;3.13;;;6.50;99.90;;;;;;4952633;28;20225;-68
2022/01/30 05:14:03;;;;;;;10.73;3.40;;;6.50;99.90;;;;;;4955533;28;20309;-68
2022/01/30 05:16:34;;;;;;;4.63;2.78;;;6.50;99.90;;;;;;4965235;28;20249;-68
2022/01/30 05:19:01;;;;;;;8.85;3.47;;;6.50;99.90;;;;;;4961244;28;20205;-69
2022/01/30 05:21:28;;;;;;;12.50;3.97;;;6.50;99.90;;;;;;4960225;28;20229;-68
2022/01/30 05:23:55;;;;;;;8.10;3.35;;;6.50;99.90;;;;;;4961953;28;20212;-68
2022/01/30 05:26:25;;;;;;;11.50;3.63;;;6.50;99.90;;;;;;4989606;23;20227;-69
2022/01/30 05:28:52;;;;;;;12.75;2.42;;;6.60;99.90;;;;;;4958001;28;20208;-69
2022/01/30 05:31:19;;;;;;;16.35;3.60;;;6.60;99.90;;;;;;4955976;28;20213;-70
2022/01/30 05:33:48;;;;;;;10.15;3.92;;;6.60;99.90;;;;;;4970511;28;20220;-69
2022/01/30 05:36:14;;;;;;;12.73;4.32;;;6.60;99.90;;;;;;4964177;28;20700;-70
2022/01/30 05:38:41;;;;;;;18.20;3.97;;;6.60;99.90;;;;;;4971078;28;20204;-70
2022/01/30 05:41:08;;;;;;;21.38;3.72;;;6.60;99.90;;;;;;4963392;28;20208;-70
2022/01/30 05:43:37;;;;;;;9.38;3.42;;;6.70;99.90;;;;;;4971871;28;20208;-69
2022/01/30 05:46:15;;;;;;;10.25;3.47;;;6.70;99.90;;;;;;4972690;28;20197;-69
2022/01/30 05:48:42;;;;;;;7.05;2.53;;;6.70;99.90;;;;;;4972682;28;20251;-69
2022/01/30 05:51:10;;;;;;;18.77;3.15;;;6.70;99.90;;;;;;4965212;28;20205;-69
2022/01/30 05:53:37;;;;;;;11.68;3.55;;;6.70;99.90;;;;;;4982993;28;20208;-69
2022/01/30 05:56:04;;;;;;;9.82;2.65;;;6.70;99.90;;;;;;4964598;28;20201;-69
2022/01/30 05:58:31;;;;;;;12.50;4.03;;;6.60;99.90;;;;;;4951966;28;20213;-69
2022/01/30 06:00:57;;;;;;;7.25;2.72;;;6.60;99.90;;;;;;4953918;28;20237;-68
2022/01/30 06:03:26;;;;;;;10.23;2.63;;;6.60;99.90;;;;;;4952038;28;20213;-69
2022/01/30 06:05:53;;;;;;;10.27;3.35;;;6.60;99.90;;;;;;4957858;28;20688;-68
2022/01/30 06:08:39;;;;;;;11.25;3.45;;;6.60;99.90;;;;;;4971435;28;20237;-67
2022/01/30 06:11:06;;;;;;;7.63;3.15;;;6.70;99.90;;;;;;4970414;28;20208;-68
2022/01/30 06:13:33;;;;;;;11.82;3.45;;;6.70;99.90;;;;;;4971020;28;20212;-67
2022/01/30 06:16:00;;;;;;;8.55;3.15;;;6.70;99.90;;;;;;4964169;28;20204;-67
2022/01/30 06:18:27;;;;;;;13.25;3.65;;;6.70;99.90;;;;;;4974821;28;20295;-68
2022/01/30 06:20:54;;;;;;;6.85;3.60;;;6.70;99.90;;;;;;4973921;28;20221;-67
2022/01/30 06:23:26;;;;;;;9.52;3.65;;;6.70;99.90;;;;;;4974806;28;20724;-68
2022/01/30 06:25:52;;;;;;;11.15;3.15;;;6.70;99.90;;;;;;4972101;28;20271;-70
2022/01/30 06:28:22;;;;;;;7.10;1.33;;;6.70;99.90;;;;;;4974248;28;20236;-69
2022/01/30 06:30:49;;;;;;;6.55;2.90;;;6.70;99.90;;;;;;4963132;28;20658;-69
2022/01/30 06:33:16;;;;;;;5.85;2.85;;;6.70;99.90;;;;;;4966446;28;20554;-69
2022/01/30 06:35:43;;;;;;;5.45;1.85;;;6.70;99.90;;;;;;4963959;28;20200;-68
2022/01/30 06:38:10;;;;;;;7.75;2.85;;;6.60;99.90;;;;;;4963752;28;20233;-69
2022/01/30 06:40:38;;;;;;;7.72;3.22;;;6.60;99.90;;;;;;4967257;28;20213;-68
2022/01/30 06:43:04;;;;;;;7.82;2.78;;;6.60;99.90;;;;;;4974274;28;20236;-68
2022/01/30 06:45:31;;;;;;;11.02;3.35;;;6.60;99.90;;;;;;4964407;28;20574;-69
2022/01/30 06:47:58;;;;;;;10.50;2.75;;;6.60;99.90;;;;;;4954871;28;20272;-68
2022/01/30 06:50:25;;;;;;;5.50;1.95;;;6.50;99.90;;;;;;4955766;28;20220;-69
2022/01/30 06:52:51;;;;;;;16.33;3.22;;;6.50;99.90;;;;;;4954860;28;20292;-68
2022/01/30 06:55:18;;;;;;;15.70;3.65;;;6.50;99.90;;;;;;4956742;28;20205;-68
2022/01/30 06:57:47;;;;;;;8.20;3.58;;;6.60;99.90;;;;;;4955782;28;20276;-68
2022/01/30 07:00:14;;;;;;;12.32;2.67;;;6.50;99.90;;;;;;4963122;28;20346;-68
2022/01/30 07:02:41;;;;;;;16.75;4.43;;;6.60;99.90;;;;;;4959100;28;20201;-68
2022/01/30 07:05:09;;;;;;;16.70;5.53;;;6.60;99.90;;;;;;4963645;28;20201;-68
2022/01/30 07:07:36;;;;;;;9.68;3.58;;;6.70;99.90;;;;;;4966040;28;20228;-68
2022/01/30 07:10:03;;;;;;;9.45;4.35;;;6.70;99.90;;;;;;4973220;28;20201;-67
2022/01/30 07:12:30;;;;;;;8.70;3.05;;;6.70;99.90;;;;;;4973671;28;20204;-67
2022/01/30 07:14:58;;;;;;;18.83;2.65;;;6.70;99.90;;;;;;4962615;28;20288;-69
2022/01/30 07:17:24;;;;;;;13.55;2.85;;;6.80;99.90;;;;;;4954541;28;20232;-68
2022/01/30 07:19:51;;;;;;;9.32;2.22;;;6.80;99.90;;;;;;4961800;28;20298;-69
2022/01/30 07:22:18;;;;;;;3.70;1.75;;;6.80;99.90;;;;;;4964726;28;20264;-69
2022/01/30 07:24:44;;;;;;;3.65;2.78;;;6.80;99.90;;;;;;4958722;28;20208;-68
2022/01/30 07:27:11;;;;;;;17.60;3.72;;;6.80;99.90;;;;;;4968297;28;20264;-68
2022/01/30 07:29:38;;;;;;;6.85;2.83;;;6.80;99.90;;;;;;4953451;28;20248;-69
2022/01/30 07:32:07;;;;;;;4.75;2.75;;;6.80;99.90;;;;;;4954715;28;20252;-68
2022/01/30 07:34:33;;;;;;;11.13;5.38;;;6.70;99.90;;;;;;4960248;28;20965;-68
2022/01/30 07:37:00;;;;;;;15.82;3.22;;;6.70;99.90;;;;;;4973452;28;20236;-68
2022/01/30 07:39:29;;;;;;;13.25;3.20;;;6.70;99.90;;;;;;4970927;28;20204;-68
2022/01/30 07:41:56;;;;;;;17.25;4.57;;;6.70;99.90;;;;;;4973357;28;20208;-68
2022/01/30 07:44:23;;;;;;;11.00;3.80;;;6.80;99.90;;;;;;4970690;28;20598;-68
2022/01/30 07:46:50;;;;;;;14.82;3.72;;;6.70;99.90;;;;;;4964988;28;20273;-68
2022/01/30 07:49:18;;;;;;;22.15;4.53;;;6.70;99.90;;;;;;4954401;28;20364;-69
2022/01/30 07:51:44;;;;;;;17.33;3.35;;;6.70;99.90;;;;;;4964354;28;20627;-68
2022/01/30 07:54:11;;;;;;;16.98;3.83;;;6.70;99.90;;;;;;4958523;28;20958;-68
2022/01/30 07:56:38;;;;;;;9.57;4.35;;;6.70;99.90;;;;;;4970655;28;20220;-69
2022/01/30 07:59:04;;;;;;;23.67;5.20;;;6.70;99.90;;;;;;4972069;28;20315;-68
2022/01/30 08:01:31;;;;;;;18.35;5.35;;;6.80;99.90;;;;;;4967774;28;20205;-69
2022/01/30 08:04:00;;;;;;;13.10;5.93;;;6.80;99.90;;;;;;4953093;28;20252;-68
2022/01/30 08:06:28;;;;;;;10.43;3.83;;;6.80;99.90;;;;;;4961256;28;20240;-68
2022/01/30 08:08:54;;;;;;;11.68;3.75;;;6.80;99.90;;;;;;4953465;28;20631;-69
2022/01/30 08:11:21;;;;;;;22.00;5.05;;;6.80;99.90;;;;;;4960327;28;20213;-68
2022/01/30 08:13:48;;;;;;;13.13;4.25;;;6.80;99.90;;;;;;4953022;28;20638;-68
2022/01/30 08:16:14;;;;;;;7.55;3.60;;;6.80;99.90;;;;;;4965656;28;20622;-68
2022/01/30 08:18:41;;;;;;;14.50;3.83;;;6.90;99.90;;;;;;4972957;28;20573;-67
2022/01/30 08:21:08;;;;;;;9.30;4.43;;;6.90;99.90;;;;;;4971807;28;20263;-67
2022/01/30 08:23:36;;;;;;;14.27;4.10;;;6.80;99.90;;;;;;4972631;28;20212;-68
2022/01/30 08:26:03;;;;;;;17.85;5.30;;;6.80;99.90;;;;;;4961367;28;20206;-68
2022/01/30 08:28:30;;;;;;;13.27;3.03;;;6.90;99.90;;;;;;4952653;28;20308;-67
2022/01/30 08:30:57;;;;;;;13.82;4.68;;;6.90;99.90;;;;;;4963153;28;20204;-67
2022/01/30 08:33:24;;;;;;;12.82;3.63;;;6.80;99.90;;;;;;4970003;28;20712;-68
2022/01/30 08:35:51;;;;;;;8.20;3.35;;;6.90;99.90;;;;;;4957506;28;20205;-68
2022/01/30 08:38:18;;;;;;;7.72;3.13;;;6.90;99.90;;;;;;4965473;28;20286;-67
2022/01/30 08:40:47;;;;;;;16.83;4.72;;;6.90;99.90;;;;;;4969884;28;20574;-67
2022/01/30 08:43:14;;;;;;;8.27;3.83;;;6.90;99.90;;;;;;4963086;28;20206;-68
2022/01/30 08:45:41;;;;;;;18.60;4.28;;;6.90;99.90;;;;;;4962189;28;20200;-67
2022/01/30 08:48:08;;;;;;;20.65;4.47;;;6.90;99.90;;;;;;4968725;28;20224;-67
2022/01/30 08:50:35;;;;;;;11.70;4.35;;;6.90;99.90;;;;;;4968163;28;20201;-68
2022/01/30 08:53:02;;;;;;;13.85;5.38;;;6.90;99.90;;;;;;4960021;28;20212;-68
2022/01/30 08:55:29;;;;;;;6.65;2.97;;;6.90;99.90;;;;;;4959815;28;20255;-68
2022/01/30 08:57:58;;;;;;;19.23;4.30;;;6.90;99.90;;;;;;4972133;28;20232;-69
2022/01/30 09:00:25;;;;;;;14.77;4.25;;;6.90;99.90;;;;;;4967650;28;20208;-68
2022/01/30 09:02:51;;;;;;;9.07;4.10;;;6.90;99.90;;;;;;4960935;28;20395;-68
2022/01/30 09:05:18;;;;;;;7.53;1.95;;;6.90;99.90;;;;;;4964903;28;20279;-69
2022/01/30 09:07:45;;;;;;;14.13;4.20;;;7.00;99.90;;;;;;4959932;28;20283;-68
2022/01/30 09:10:12;;;;;;;21.60;4.88;;;7.00;99.90;;;;;;4960756;28;20212;-68
2022/01/30 09:12:39;;;;;;;22.55;5.57;;;7.00;99.90;;;;;;4955415;28;20619;-69
2022/01/30 09:15:10;;;;;;;7.72;2.85;;;7.00;99.90;;;;;;4954344;28;20209;-68
2022/01/30 09:17:39;;;;;;;9.82;3.30;;;7.00;99.90;;;;;;4968469;28;20685;-69
2022/01/30 09:20:07;;;;;;;6.55;3.67;;;7.00;99.90;;;;;;4964583;28;20196;-68
2022/01/30 09:22:34;;;;;;;9.35;3.70;;;7.00;99.90;;;;;;4955558;28;20275;-69
2022/01/30 09:25:00;;;;;;;6.80;3.15;;;7.00;99.90;;;;;;4960795;28;20236;-68
2022/01/30 09:27:27;;;;;;;14.57;2.85;;;7.00;99.90;;;;;;4965497;28;20283;-69
2022/01/30 09:29:54;;;;;;;10.25;4.32;;;7.10;99.90;;;;;;4970039;28;20518;-68
2022/01/30 09:32:22;;;;;;;13.95;5.25;;;7.10;99.90;;;;;;4965642;28;20245;-69
2022/01/30 09:34:49;;;;;;;13.15;3.30;;;7.10;99.90;;;;;;4959388;28;20219;-68
2022/01/30 09:37:17;;;;;;;13.73;2.88;;;7.10;99.90;;;;;;4955996;28;20229;-69
2022/01/30 09:39:45;;;;;;;10.52;3.28;;;7.10;99.90;;;;;;4969311;28;20565;-69
2022/01/30 09:42:11;;;;;;;10.23;4.15;;;7.10;99.90;;;;;;4953222;28;20216;-69
2022/01/30 09:44:40;;;;;;;9.50;3.83;;;7.10;99.90;;;;;;4959651;28;20208;-68
2022/01/30 09:47:11;;;;;;;9.60;3.10;;;7.10;99.90;;;;;;4953189;28;20229;-68
2022/01/30 09:49:41;;;;;;;18.92;5.00;;;7.10;99.90;;;;;;4957876;28;20205;-68
2022/01/30 09:52:09;;;;;;;13.13;4.68;;;7.10;99.90;;;;;;4973695;28;20299;-67
2022/01/30 09:54:36;;;;;;;21.83;4.70;;;7.10;99.90;;;;;;4970953;28;20315;-67
2022/01/30 09:57:03;;;;;;;7.78;3.85;;;7.10;99.90;;;;;;4972973;28;20224;-67
2022/01/30 09:59:30;;;;;;;10.32;2.55;;;7.10;99.90;;;;;;4973835;28;20577;-67
2022/01/30 10:01:56;;;;;;;11.55;4.40;;;7.10;99.90;;;;;;4974025;28;20216;-67
2022/01/30 10:04:23;;;;;;;12.63;4.15;;;7.20;99.90;;;;;;4974220;28;20263;-68
2022/01/30 10:06:58;;;;;;;17.58;4.18;;;7.20;99.90;;;;;;4975348;28;20233;-67
2022/01/30 10:09:30;;;;;;;12.68;4.43;;;7.20;99.90;;;;;;4974112;28;20251;-68
2022/01/30 10:12:13;;;;;;;17.85;4.03;;;7.20;99.90;;;;;;4971833;28;20211;-67
2022/01/30 10:14:50;;;;;;;11.77;4.75;;;7.20;99.90;;;;;;4959293;28;20272;-67
2022/01/30 10:17:31;;;;;;;17.08;5.22;;;7.30;99.90;;;;;;4965981;28;20298;-68
2022/01/30 10:20:08;;;;;;;10.90;4.55;;;7.30;99.90;;;;;;4970155;28;20661;-68
2022/01/30 10:22:38;;;;;;;9.80;2.83;;;7.30;99.90;;;;;;4969399;28;20228;-67
2022/01/30 10:25:05;;;;;;;14.50;4.47;;;7.30;99.90;;;;;;4974858;28;20641;-67
2022/01/30 10:27:33;;;;;;;14.73;4.90;;;7.30;99.90;;;;;;4973270;28;20232;-68
2022/01/30 10:30:03;;;;;;;17.13;4.47;;;7.30;99.90;;;;;;4973498;28;20262;-67
2022/01/30 10:32:30;;;;;;;5.88;3.08;;;7.30;99.90;;;;;;4973443;28;20720;-68
2022/01/30 10:34:59;;;;;;;22.58;4.43;;;7.30;99.90;;;;;;4974528;28;20215;-67
2022/01/30 10:37:26;;;;;;;5.50;3.40;;;7.30;99.90;;;;;;4970179;28;20322;-66
2022/01/30 10:39:57;;;;;;;9.88;3.03;;;7.30;99.90;;;;;;4973683;28;20209;-67
2022/01/30 10:42:38;;;;;;;19.70;4.22;;;7.30;99.90;;;;;;4972847;28;20275;-67
2022/01/30 10:45:07;;;;;;;13.85;5.25;;;7.30;99.90;;;;;;4972776;28;20639;-67
2022/01/30 10:47:36;;;;;;;22.23;6.85;;;7.40;99.90;;;;;;4968462;28;20256;-66
2022/01/30 10:50:08;;;;;;;15.85;4.80;;;7.40;99.90;;;;;;4955287;28;20217;-66
2022/01/30 10:52:34;;;;;;;31.95;6.25;;;7.40;99.90;;;;;;4960227;28;20276;-67
2022/01/30 10:55:07;;;;;;;9.70;3.05;;;7.50;99.90;;;;;;4961204;28;20576;-67
2022/01/30 10:57:41;;;;;;;13.55;4.85;;;7.50;99.90;;;;;;4972674;28;20601;-67
2022/01/30 11:00:08;;;;;;;13.80;4.75;;;7.50;99.90;;;;;;4972589;28;20677;-66
2022/01/30 11:02:38;;;;;;;12.77;3.45;;;7.50;99.90;;;;;;4973175;28;20317;-68
2022/01/30 11:05:10;;;;;;;14.45;4.30;;;7.40;99.90;;;;;;4974684;28;20212;-68
2022/01/30 11:07:38;;;;;;;23.33;5.03;;;7.40;99.90;;;;;;4964418;28;20233;-69
2022/01/30 11:10:12;;;;;;;15.48;3.35;;;7.40;99.90;;;;;;4960551;28;20213;-69
2022/01/30 11:12:42;;;;;;;19.17;4.13;;;7.40;99.90;;;;;;4956463;28;20295;-68
2022/01/30 11:15:21;;;;;;;11.43;4.32;;;7.40;99.90;;;;;;4955518;28;20215;-68
2022/01/30 11:17:48;;;;;;;13.93;4.82;;;7.40;99.90;;;;;;4973963;28;20232;-68
2022/01/30 11:20:15;;;;;;;16.30;3.65;;;7.40;99.90;;;;;;4963704;28;20208;-68
2022/01/30 11:22:46;;;;;;;14.48;5.97;;;7.40;99.90;;;;;;4969120;28;20586;-68
2022/01/30 11:25:16;;;;;;;27.88;4.68;;;7.40;99.90;;;;;;4954634;28;20213;-67
2022/01/30 11:27:46;;;;;;;14.20;3.97;;;7.50;99.90;;;;;;4966214;28;20611;-68
2022/01/30 11:30:15;;;;;;;17.17;5.63;;;7.50;99.90;;;;;;4967388;28;20295;-68
2022/01/30 11:32:53;;;;;;;10.45;3.50;;;7.50;99.90;;;;;;4982265;28;20260;-67
2022/01/30 11:35:19;;;;;;;22.35;4.18;;;7.50;99.90;;;;;;4960826;28;20200;-69
2022/01/30 11:37:46;;;;;;;17.05;4.65;;;7.50;99.90;;;;;;4961083;28;20232;-68
2022/01/30 11:40:16;;;;;;;12.82;3.83;;;7.50;99.90;;;;;;4969445;28;20216;-68
2022/01/30 11:42:46;;;;;;;18.65;4.55;;;7.50;99.90;;;;;;4964863;28;20251;-68
2022/01/30 11:45:17;;;;;;;24.90;4.75;;;7.50;99.90;;;;;;4966095;28;20208;-68
2022/01/30 11:47:46;;;;;;;15.85;4.75;;;7.50;99.90;;;;;;4962849;28;20229;-68
2022/01/30 11:50:19;;;;;;;11.25;3.50;;;7.50;99.90;;;;;;4957106;28;20213;-68
2022/01/30 11:52:50;;;;;;;14.73;4.70;;;7.50;99.90;;;;;;4964704;28;20212;-68
2022/01/30 11:55:49;;;;;;;15.70;4.18;;;7.50;99.90;;;;;;4969161;28;20223;-68
2022/01/30 11:58:47;;;;;;;7.20;3.63;;;7.50;99.90;;;;;;4965616;28;22018;-69
2022/01/30 12:01:37;;;;;;;25.83;5.47;;;7.50;99.90;;;;;;4972061;28;20224;-69
2022/01/30 12:04:07;;;;;;;11.77;3.63;;;7.50;99.90;;;;;;4956497;28;20229;-69
2022/01/30 12:06:35;;;;;;;18.38;4.53;;;7.50;99.90;;;;;;4953987;28;20225;-68
2022/01/30 12:09:04;;;;;;;20.60;4.38;;;7.50;99.90;;;;;;4961818;28;20247;-68
2022/01/30 12:12:03;;;;;;;14.85;4.63;;;7.50;99.90;;;;;;4964542;28;20284;-69
2022/01/30 12:14:54;;;;;;;11.13;3.67;;;7.50;99.90;;;;;;4936173;28;20213;-69
2022/01/30 12:17:57;;;;;;;13.98;4.43;;;7.60;99.90;;;;;;4957895;28;20294;-68
2022/01/30 12:20:24;;;;;;;18.88;3.95;;;7.60;99.90;;;;;;4970782;28;20565;-69
2022/01/30 12:22:52;;;;;;;7.93;3.47;;;7.60;99.90;;;;;;4969064;28;20201;-68
2022/01/30 12:25:53;;;;;;;16.25;4.35;;;7.50;99.90;;;;;;4972248;28;20259;-68
2022/01/30 12:28:40;;;;;;;13.82;4.13;;;7.50;99.90;;;;;;4977232;28;20236;-68
2022/01/30 12:31:25;;;;;;;6.65;2.38;;;7.50;99.90;;;;;;4966294;28;20213;-68
2022/01/30 12:33:59;;;;;;;16.92;5.40;;;7.50;99.90;;;;;;4964816;28;20208;-68
2022/01/30 12:36:26;;;;;;;19.65;5.60;;;7.50;99.90;;;;;;4960816;28;20300;-69
2022/01/30 12:39:02;;;;;;;14.55;4.63;;;7.50;99.90;;;;;;5013146;23;20224;-72
2022/01/30 12:41:30;;;;;;;13.52;3.80;;;7.50;99.90;;;;;;4973105;28;20629;-72
2022/01/30 12:44:00;;;;;;;15.85;4.55;;;7.50;99.90;;;;;;4973526;28;20567;-70
2022/01/30 12:46:28;;;;;;;9.98;3.38;;;7.50;99.90;;;;;;4973278;28;20281;-70
2022/01/30 12:49:14;;;;;;;17.30;4.78;;;7.50;99.90;;;;;;4973761;28;20225;-72
2022/01/30 12:51:43;;;;;;;18.15;4.93;;;7.50;99.90;;;;;;4973564;28;20215;-71
2022/01/30 12:54:11;;;;;;;24.27;4.75;;;7.50;99.90;;;;;;4973888;28;20575;-70
2022/01/30 12:56:37;;;;;;;16.58;3.75;;;7.40;99.90;;;;;;4967329;28;20276;-69
2022/01/30 12:59:07;;;;;;;11.07;3.78;;;7.40;99.90;;;;;;4953476;28;20757;-71
2022/01/30 13:01:36;;;;;;;7.22;3.80;;;7.40;99.90;;;;;;4964142;28;20208;-72
2022/01/30 13:04:09;;;;;;;8.90;2.10;;;7.40;99.90;;;;;;4973526;28;20209;-69
2022/01/30 13:06:39;;;;;;;15.02;3.75;;;7.40;99.90;;;;;;4972406;28;20207;-69
2022/01/30 13:09:07;;;;;;;20.85;5.82;;;7.40;99.90;;;;;;4972757;28;20228;-69
2022/01/30 13:11:34;;;;;;;23.73;5.78;;;7.40;99.90;;;;;;4973302;28;20208;-72
2022/01/30 13:14:03;;;;;;;13.13;3.75;;;7.40;99.90;;;;;;4972859;28;20259;-72
2022/01/30 13:16:35;;;;;;;18.45;4.30;;;7.40;99.90;;;;;;4968824;28;20205;-72
2022/01/30 13:19:03;;;;;;;8.05;2.38;;;7.40;99.90;;;;;;4954192;28;20255;-72
2022/01/30 13:21:32;;;;;;;19.67;4.80;;;7.40;99.90;;;;;;4953284;28;20209;-72
2022/01/30 13:23:59;;;;;;;11.05;3.63;;;7.40;99.90;;;;;;4954020;28;20275;-72
2022/01/30 13:26:47;;;;;;;9.32;3.38;;;7.40;99.90;;;;;;4957732;28;20669;-72
2022/01/30 13:29:20;;;;;;;17.05;4.88;;;7.30;99.90;;;;;;4969584;28;20279;-71
2022/01/30 13:31:50;;;;;;;7.85;4.15;;;7.30;99.90;;;;;;4972960;28;20323;-71
2022/01/30 13:34:26;;;;;;;10.55;3.40;;;7.30;99.90;;;;;;4972766;28;20217;-71
2022/01/30 13:37:00;;;;;;;13.45;4.97;;;7.30;99.90;;;;;;4966522;28;20208;-71
2022/01/30 13:39:34;;;;;;;10.75;3.55;;;7.30;99.90;;;;;;4973671;28;20224;-72
2022/01/30 13:47:53;;;;;;;18.17;4.90;;;7.30;99.90;;;;;;4972002;28;20227;-72
2022/01/30 13:50:21;;;;;;;13.93;5.10;;;7.30;99.90;;;;;;4972819;28;20295;-71
2022/01/30 13:52:47;;;;;;;13.40;3.70;;;7.30;99.90;;;;;;4972924;28;20617;-72
2022/01/30 13:55:14;;;;;;;4.88;3.10;;;7.20;99.90;;;;;;4971391;28;20220;-72
2022/01/30 13:57:42;;;;;;;12.10;3.00;;;7.20;99.90;;;;;;4967007;28;20271;-72
2022/01/30 14:00:11;;;;;;;10.07;2.78;;;7.20;99.90;;;;;;4958960;28;20272;-70
2022/01/30 14:02:53;;;;;;;4.65;3.97;;;7.20;99.90;;;;;;4968203;28;20197;-71
2022/01/30 14:05:29;;;;;;;5.88;3.17;;;7.20;99.90;;;;;;4967300;28;20668;-72
2022/01/30 14:07:57;;;;;;;9.43;2.45;;;7.20;99.90;;;;;;4964817;28;20229;-72
2022/01/30 14:10:29;;;;;;;12.60;3.20;;;7.20;99.90;;;;;;4967079;28;20209;-72
2022/01/30 14:13:01;;;;;;;6.18;1.77;;;7.10;99.90;;;;;;4965850;28;20197;-71
2022/01/30 14:15:28;;;;;;;4.55;1.70;;;7.10;99.90;;;;;;4971613;28;20223;-71
2022/01/30 14:18:15;;;;;;;7.93;2.20;;;7.00;99.90;;;;;;4970870;28;20267;-71
2022/01/30 14:20:44;;;;;;;11.65;3.05;;;7.00;99.90;;;;;;4964741;28;20228;-71
2022/01/30 14:23:12;;;;;;;5.63;2.65;;;7.00;99.90;;;;;;4952525;28;20299;-71
2022/01/30 14:25:40;;;;;;;7.50;3.13;;;7.00;99.90;;;;;;4953154;28;20205;-71
2022/01/30 14:28:23;;;;;;;10.35;2.35;;;7.00;99.90;;;;;;4952942;28;20244;-71
2022/01/30 14:30:50;;;;;;;5.97;2.53;;;7.00;99.90;;;;;;4952669;28;20248;-71
2022/01/30 14:33:18;;;;;;;11.23;2.92;;;6.90;99.90;;;;;;4953760;28;20213;-71
2022/01/30 14:35:46;;;;;;;3.60;2.33;;;6.90;99.90;;;;;;4954826;28;20216;-72
2022/01/30 14:38:13;;;;;;;11.80;2.80;;;6.90;99.90;;;;;;4956537;28;20756;-72
2022/01/30 14:40:40;;;;;;;2.58;2.45;;;6.90;99.90;;;;;;4955466;28;20225;-73
2022/01/30 14:43:08;;;;;;;16.00;2.17;;;6.80;99.90;;;;;;4956149;28;20627;-72
2022/01/30 14:45:36;;;;;;;11.68;2.58;;;6.80;99.90;;;;;;4956056;28;20691;-74
2022/01/30 14:48:04;;;;;;;2.25;2.05;;;6.80;99.90;;;;;;4956161;28;20597;-71
2022/01/30 14:50:32;;;;;;;6.20;2.78;;;6.80;99.90;;;;;;4955728;28;20737;-71
2022/01/30 14:52:59;;;;;;;7.07;3.83;;;6.80;99.90;;;;;;4956471;28;20275;-71
2022/01/30 14:55:27;;;;;;;11.93;3.33;;;6.80;99.90;;;;;;4966482;28;20208;-71
2022/01/30 14:57:56;;;;;;;4.18;2.03;;;6.80;99.90;;;;;;4971922;28;20555;-72
2022/01/30 15:00:25;;;;;;;5.80;2.80;;;6.80;99.90;;;;;;4957782;28;20264;-72
2022/01/30 15:02:52;;;;;;;10.23;3.45;;;6.70;99.90;;;;;;4969338;28;20630;-72
2022/01/30 15:05:20;;;;;;;8.68;2.83;;;6.70;99.90;;;;;;4975586;28;20266;-72
2022/01/30 15:07:48;;;;;;;8.07;2.67;;;6.70;99.90;;;;;;4973610;28;20275;-73
2022/01/30 15:10:16;;;;;;;7.30;2.10;;;6.70;99.90;;;;;;4974602;28;20205;-73
2022/01/30 15:12:43;;;;;;;4.72;2.15;;;6.70;99.90;;;;;;4964045;28;20215;-72
2022/01/30 15:15:11;;;;;;;7.30;2.80;;;6.70;99.90;;;;;;4972862;28;20201;-72
2022/01/30 15:17:39;;;;;;;17.40;3.40;;;6.60;99.90;;;;;;4961606;28;20225;-72
2022/01/30 15:20:09;;;;;;;8.90;3.83;;;6.60;99.90;;;;;;4964456;28;20227;-72
2022/01/30 15:22:35;;;;;;;7.63;2.30;;;6.60;99.90;;;;;;4957215;28;20284;-71
2022/01/30 15:25:06;;;;;;;14.40;3.60;;;6.60;99.90;;;;;;4957827;28;20228;-71
2022/01/30 15:27:33;;;;;;;4.57;2.72;;;6.60;99.90;;;;;;4960237;28;20291;-71
2022/01/30 15:30:00;;;;;;;3.45;2.08;;;6.60;99.90;;;;;;4974599;28;20208;-71
2022/01/30 15:32:27;;;;;;;10.43;3.97;;;6.60;99.90;;;;;;4969015;28;20295;-72
2022/01/30 15:34:56;;;;;;;24.05;3.38;;;6.60;99.90;;;;;;4971674;28;20197;-71
2022/01/30 15:37:23;;;;;;;7.93;2.92;;;6.60;99.90;;;;;;4960647;28;20264;-72
2022/01/30 15:39:50;;;;;;;9.82;3.45;;;6.50;99.90;;;;;;4957875;28;20237;-73
2022/01/30 15:42:18;;;;;;;6.53;3.42;;;6.60;99.90;;;;;;4975314;28;20212;-70
2022/01/30 15:50:14;;;;;;;12.43;2.92;;;6.50;99.90;;;;;;4968317;28;20212;-73
2022/01/30 15:52:41;;;;;;;13.73;2.85;;;6.50;99.90;;;;;;4971762;28;20205;-71
2022/01/30 15:55:08;;;;;;;6.45;2.53;;;6.50;99.90;;;;;;4966288;28;20204;-71
2022/01/30 15:57:37;;;;;;;7.53;3.28;;;6.40;99.90;;;;;;4968461;28;20330;-72
2022/01/30 16:00:05;;;;;;;22.95;3.80;;;6.40;99.90;;;;;;4953945;28;20363;-71
2022/01/30 16:02:32;;;;;;;8.70;3.13;;;6.40;99.90;;;;;;4955529;28;20740;-72
2022/01/30 16:04:58;;;;;;;8.45;2.67;;;6.40;99.90;;;;;;4974440;28;20220;-70
2022/01/30 16:07:25;;;;;;;11.07;2.85;;;6.40;99.90;;;;;;4971562;28;20721;-72
2022/01/30 16:09:55;;;;;;;8.32;2.92;;;6.40;99.90;;;;;;4967789;28;20212;-70
2022/01/30 16:12:47;;;;;;;8.52;2.20;;;6.40;99.90;;;;;;4966316;28;20223;-71
2022/01/30 16:18:00;;;;;;;8.30;2.33;;;6.40;99.90;;;;;;4966999;28;20236;-70
2022/01/30 16:20:27;;;;;;;9.00;2.63;;;6.40;99.90;;;;;;4976895;28;20647;-71
2022/01/30 16:22:53;;;;;;;11.43;2.47;;;6.40;99.90;;;;;;4955376;28;20575;-71
2022/01/30 16:25:20;;;;;;;8.23;2.22;;;6.40;99.90;;;;;;4959843;28;20220;-71
2022/01/30 16:27:47;;;;;;;15.77;3.15;;;6.40;99.90;;;;;;4957303;28;20220;-72
2022/01/30 16:30:15;;;;;;;10.10;4.07;;;6.40;99.90;;;;;;4963434;28;20255;-72
2022/01/30 16:32:42;;;;;;;6.90;2.15;;;6.30;99.90;;;;;;4970984;28;20204;-73
2022/01/30 16:35:11;;;;;;;11.43;3.25;;;6.30;99.90;;;;;;4959235;28;20215;-71
2022/01/30 16:37:38;;;;;;;7.85;3.10;;;6.30;99.90;;;;;;4972281;28;20608;-71
2022/01/30 16:40:06;;;;;;;10.90;2.67;;;6.30;99.90;;;;;;4973489;28;20224;-72
2022/01/30 16:42:34;;;;;;;6.60;2.30;;;6.30;99.90;;;;;;4970964;28;20208;-72
2022/01/30 16:45:09;;;;;;;7.25;2.55;;;6.30;99.90;;;;;;4965503;28;20600;-71
2022/01/30 16:47:39;;;;;;;5.65;2.00;;;6.30;99.90;;;;;;4960502;28;20231;-72
2022/01/30 16:50:06;;;;;;;4.13;1.67;;;6.30;99.90;;;;;;4956289;28;20197;-72
2022/01/30 16:52:33;;;;;;;7.07;2.35;;;6.30;99.90;;;;;;4968670;28;20256;-73
2022/01/30 16:55:00;;;;;;;7.65;2.67;;;6.30;99.90;;;;;;4954359;28;20693;-71
2022/01/30 16:57:28;;;;;;;7.05;2.70;;;6.30;99.90;;;;;;4953729;28;20225;-73
2022/01/30 16:59:55;;;;;;;8.23;2.60;;;6.30;99.90;;;;;;4954903;28;20225;-73
2022/01/30 17:02:22;;;;;;;8.20;3.28;;;6.30;99.90;;;;;;4970329;28;20533;-72
2022/01/30 17:04:50;;;;;;;13.02;3.97;;;6.20;99.90;;;;;;4959335;28;20658;-74
2022/01/30 17:07:21;;;;;;;9.75;3.08;;;6.20;99.90;;;;;;4956839;28;20292;-74
2022/01/30 17:09:49;;;;;;;9.05;3.10;;;6.20;99.90;;;;;;4967567;28;20701;-74
2022/01/30 17:12:18;;;;;;;10.35;2.95;;;6.20;99.90;;;;;;4967139;28;20212;-74
2022/01/30 17:14:49;;;;;;;9.75;2.40;;;6.20;99.90;;;;;;4962059;28;20201;-74
2022/01/30 17:17:17;;;;;;;10.63;2.90;;;6.20;99.90;;;;;;4959599;28;20308;-72
2022/01/30 17:19:44;;;;;;;11.38;3.88;;;6.20;99.90;;;;;;4960749;28;20236;-73
2022/01/30 17:22:12;;;;;;;14.25;2.20;;;6.20;99.90;;;;;;4964244;28;20232;-72
2022/01/30 17:24:38;;;;;;;9.02;3.58;;;6.20;99.90;;;;;;4953124;28;20641;-71
2022/01/30 17:27:06;;;;;;;16.65;3.38;;;6.20;99.90;;;;;;4952791;28;20201;-71
2022/01/30 17:29:32;;;;;;;10.98;4.30;;;6.20;99.90;;;;;;4953246;28;20261;-71
2022/01/30 17:31:59;;;;;;;9.80;3.30;;;6.20;99.90;;;;;;4962192;28;20245;-71
2022/01/30 17:34:26;;;;;;;11.48;3.20;;;6.20;99.90;;;;;;4960116;28;20256;-71
2022/01/30 17:36:52;;;;;;;8.43;2.78;;;6.20;99.90;;;;;;4968317;28;20327;-70
2022/01/30 17:39:20;;;;;;;4.85;1.65;;;6.20;99.90;;;;;;4968325;28;20271;-71
2022/01/30 17:41:47;;;;;;;8.20;3.83;;;6.10;99.90;;;;;;4956262;28;20279;-70
2022/01/30 17:44:14;;;;;;;4.03;2.10;;;6.20;99.90;;;;;;4962018;28;20209;-70
2022/01/30 17:46:41;;;;;;;11.98;3.28;;;6.10;99.90;;;;;;4970175;28;20201;-71
2022/01/30 17:49:08;;;;;;;13.75;2.88;;;6.10;99.90;;;;;;4965050;28;20221;-71
2022/01/30 17:51:35;;;;;;;15.80;4.05;;;6.10;99.90;;;;;;4967000;28;20205;-71
2022/01/30 17:54:02;;;;;;;10.57;3.88;;;6.10;99.90;;;;;;4965664;28;20208;-70
2022/01/30 17:56:34;;;;;;;11.20;2.38;;;6.10;99.90;;;;;;4956183;28;20213;-71
2022/01/30 17:59:01;;;;;;;9.73;2.03;;;6.10;99.90;;;;;;4953971;28;20232;-71
2022/01/30 18:01:27;;;;;;;6.95;2.45;;;6.10;99.90;;;;;;4961529;28;20221;-71
2022/01/30 18:03:54;;;;;;;8.88;2.65;;;6.10;99.90;;;;;;4958340;28;20213;-71
2022/01/30 18:06:21;;;;;;;7.70;2.25;;;6.10;99.90;;;;;;4968910;28;20343;-73
2022/01/30 18:08:51;;;;;;;3.50;2.03;;;6.10;99.90;;;;;;4967233;28;20276;-71
2022/01/30 18:11:18;;;;;;;5.90;2.10;;;6.00;99.90;;;;;;4954914;28;20209;-72
2022/01/30 18:13:46;;;;;;;3.05;2.25;;;6.00;99.90;;;;;;4959766;28;20602;-73
2022/01/30 18:16:13;;;;;;;5.63;2.20;;;6.00;99.90;;;;;;4963006;28;20256;-72